Time;durP1;ratioP1;P1;durP2;ratioP2;P2;SDS_P1;SDS_P2;PMS_P1;PMS_P2;Temp;Humidity;BMP_temperature;BMP_pressure;BME280_temperature;BME280_humidity;BME280_pressure;Samples;Min_cycle;Max_cycle;Signal;HPM_P1;HPM_P2
2021/01/03 00:00:32;;;;;;;0.50;0.50;;;1.90;99.90;;;;;;5011021;28;20237;-87
2021/01/03 00:02:58;;;;;;;0.50;0.50;;;2.30;99.90;;;;;;5010219;28;20660;-87
2021/01/03 00:05:27;;;;;;;0.50;0.50;;;2.10;99.90;;;;;;5010498;28;20206;-88
2021/01/03 00:07:55;;;;;;;0.50;0.50;;;2.10;99.90;;;;;;5009961;28;20653;-87
2021/01/03 00:10:25;;;;;;;0.50;0.50;;;2.80;99.90;;;;;;5009661;28;20206;-87
2021/01/03 00:12:52;;;;;;;0.40;0.40;;;1.20;99.90;;;;;;5009692;28;20237;-87
2021/01/03 00:15:21;;;;;;;0.50;0.50;;;2.10;99.90;;;;;;5009665;28;20221;-87
2021/01/03 00:17:48;;;;;;;0.50;0.50;;;2.10;99.90;;;;;;5009467;28;20717;-87
2021/01/03 00:20:23;;;;;;;0.50;0.50;;;2.10;99.90;;;;;;5008783;28;20398;-87
2021/01/03 00:22:50;;;;;;;0.50;0.50;;;2.00;99.90;;;;;;5009050;28;20221;-87
2021/01/03 00:25:19;;;;;;;0.50;0.50;;;2.20;99.90;;;;;;5008601;28;20198;-88
2021/01/03 00:27:46;;;;;;;0.50;0.50;;;2.10;99.90;;;;;;5010590;28;20198;-87
2021/01/03 00:30:14;;;;;;;0.50;0.50;;;1.90;99.90;;;;;;5013513;28;20564;-88
2021/01/03 00:32:51;;;;;;;0.50;0.50;;;2.10;99.90;;;;;;5009203;28;20285;-89
2021/01/03 00:35:27;;;;;;;0.50;0.50;;;2.70;99.90;;;;;;5009601;28;20673;-87
2021/01/03 00:37:56;;;;;;;0.50;0.50;;;1.70;99.90;;;;;;5009793;28;20502;-88
2021/01/03 00:40:25;;;;;;;0.50;0.50;;;1.80;99.90;;;;;;5010074;28;20267;-87
2021/01/03 00:42:51;;;;;;;0.50;0.50;;;2.10;99.90;;;;;;5010125;28;20310;-88
2021/01/03 00:45:18;;;;;;;0.50;0.50;;;2.20;99.90;;;;;;5009872;28;20577;-87
2021/01/03 00:47:44;;;;;;;0.50;0.50;;;2.20;99.90;;;;;;5009604;28;20736;-87
2021/01/03 00:50:14;;;;;;;0.45;0.45;;;2.00;99.90;;;;;;5009491;28;20209;-88
2021/01/03 00:52:40;;;;;;;0.50;0.50;;;2.20;99.90;;;;;;5010018;28;20260;-87
2021/01/03 00:55:10;;;;;;;0.50;0.50;;;1.40;99.90;;;;;;5009737;28;20213;-88
2021/01/03 00:57:38;;;;;;;0.50;0.50;;;2.10;99.90;;;;;;5009809;28;20213;-88
2021/01/03 01:00:08;;;;;;;0.47;0.47;;;2.10;99.90;;;;;;5009354;28;20693;-87
2021/01/03 01:02:35;;;;;;;0.50;0.50;;;2.10;99.90;;;;;;5009558;28;20446;-87
2021/01/03 01:05:01;;;;;;;0.50;0.50;;;1.90;99.90;;;;;;5009621;28;20201;-87
2021/01/03 01:07:28;;;;;;;0.50;0.50;;;2.70;99.90;;;;;;5010089;28;20255;-87
2021/01/03 01:09:54;;;;;;;0.50;0.50;;;1.90;99.90;;;;;;5009377;28;20206;-87
2021/01/03 01:12:20;;;;;;;0.50;0.50;;;1.90;99.90;;;;;;5009457;28;20279;-87
2021/01/03 01:14:47;;;;;;;0.50;0.50;;;1.40;99.90;;;;;;5009481;28;20623;-87
2021/01/03 01:17:14;;;;;;;0.50;0.50;;;1.60;99.90;;;;;;5009634;28;20209;-87
2021/01/03 01:19:40;;;;;;;0.50;0.50;;;1.80;99.90;;;;;;5009269;28;20202;-87
2021/01/03 01:22:09;;;;;;;0.50;0.50;;;1.60;99.90;;;;;;5009246;28;20224;-88
2021/01/03 01:24:36;;;;;;;0.50;0.50;;;2.00;99.90;;;;;;5009545;28;20668;-87
2021/01/03 01:27:02;;;;;;;0.50;0.50;;;1.70;99.90;;;;;;5009833;28;20782;-88
2021/01/03 01:29:29;;;;;;;0.50;0.50;;;1.70;99.90;;;;;;5009250;28;20228;-88
2021/01/03 01:31:56;;;;;;;0.50;0.50;;;1.80;99.90;;;;;;5009080;28;20285;-88
2021/01/03 01:34:24;;;;;;;0.50;0.50;;;2.10;99.90;;;;;;5009293;28;20388;-88
2021/01/03 01:36:50;;;;;;;0.50;0.50;;;1.70;99.90;;;;;;5009149;28;20248;-87
2021/01/03 01:39:16;;;;;;;0.50;0.50;;;1.60;99.90;;;;;;5009768;28;20205;-88
2021/01/03 01:41:43;;;;;;;0.50;0.50;;;1.60;99.90;;;;;;5009290;28;20216;-88
2021/01/03 01:44:09;;;;;;;0.50;0.50;;;1.60;99.90;;;;;;5009213;28;20237;-88
2021/01/03 01:46:43;;;;;;;0.50;0.50;;;1.40;99.90;;;;;;5009374;28;20657;-87
2021/01/03 01:49:13;;;;;;;0.50;0.50;;;1.40;99.90;;;;;;5012243;28;20223;-88
2021/01/03 01:51:42;;;;;;;0.50;0.50;;;1.50;99.90;;;;;;5012945;28;20372;-89
2021/01/03 01:54:17;;;;;;;0.50;0.50;;;1.50;99.90;;;;;;5012673;28;20577;-87
2021/01/03 01:56:51;;;;;;;0.50;0.50;;;1.50;99.90;;;;;;5012988;28;20217;-87
2021/01/03 01:59:23;;;;;;;0.50;0.50;;;3.10;99.90;;;;;;5013015;28;20214;-88
2021/01/03 02:01:58;;;;;;;0.50;0.50;;;1.50;99.90;;;;;;5013225;28;20212;-87
2021/01/03 02:04:32;;;;;;;0.50;0.50;;;1.20;99.90;;;;;;5012917;28;20221;-88
2021/01/03 02:07:04;;;;;;;0.50;0.50;;;1.60;99.90;;;;;;5012778;28;20214;-87
2021/01/03 02:09:39;;;;;;;0.50;0.50;;;2.80;99.90;;;;;;5012350;28;20275;-88
2021/01/03 02:12:08;;;;;;;0.50;0.50;;;1.60;99.90;;;;;;5012405;28;20203;-87
2021/01/03 02:14:35;;;;;;;0.50;0.50;;;0.60;99.90;;;;;;5012498;28;20206;-88
2021/01/03 02:17:02;;;;;;;0.50;0.50;;;1.50;99.90;;;;;;5012454;28;20220;-87
2021/01/03 02:19:33;;;;;;;0.50;0.50;;;1.70;99.90;;;;;;5012607;28;20235;-88
2021/01/03 02:22:07;;;;;;;0.50;0.50;;;1.60;99.90;;;;;;5013009;28;20198;-88
2021/01/03 02:24:43;;;;;;;0.50;0.50;;;1.60;99.90;;;;;;5012344;28;20217;-88
2021/01/03 02:27:21;;;;;;;0.50;0.50;;;1.50;99.90;;;;;;5011435;28;20835;-88
2021/01/03 02:29:51;;;;;;;0.50;0.50;;;2.50;99.90;;;;;;5012623;28;20205;-88
2021/01/03 02:32:19;;;;;;;0.50;0.50;;;1.50;99.90;;;;;;5012377;28;20205;-88
2021/01/03 02:34:49;;;;;;;0.50;0.50;;;1.50;99.90;;;;;;5012474;28;20214;-88
2021/01/03 02:37:21;;;;;;;0.50;0.50;;;1.50;99.90;;;;;;5012164;28;20209;-88
2021/01/03 02:39:54;;;;;;;0.50;0.50;;;3.20;99.90;;;;;;5012602;28;20680;-88
2021/01/03 02:42:26;;;;;;;0.50;0.50;;;1.10;99.90;;;;;;5012387;28;20205;-88
2021/01/03 02:44:52;;;;;;;0.50;0.50;;;1.20;99.90;;;;;;5012442;28;20256;-88
2021/01/03 02:47:25;;;;;;;0.50;0.50;;;1.60;99.90;;;;;;5012098;28;20284;-88
2021/01/03 02:49:52;;;;;;;0.50;0.50;;;1.90;99.90;;;;;;5012263;28;20210;-88
2021/01/03 02:52:27;;;;;;;0.50;0.50;;;1.60;99.90;;;;;;5011586;28;20206;-87
2021/01/03 02:54:53;;;;;;;0.50;0.50;;;1.50;99.90;;;;;;5012279;28;20575;-88
2021/01/03 02:57:21;;;;;;;0.50;0.50;;;2.50;99.90;;;;;;5011555;28;20245;-88
2021/01/03 02:59:47;;;;;;;0.50;0.50;;;1.50;99.90;;;;;;5011231;28;20284;-88
2021/01/03 03:02:13;;;;;;;0.50;0.50;;;1.70;99.90;;;;;;5012049;28;20202;-88
2021/01/03 03:04:40;;;;;;;0.50;0.50;;;1.70;99.90;;;;;;5011169;28;20275;-88
2021/01/03 03:07:06;;;;;;;0.40;0.40;;;1.60;99.90;;;;;;5011661;28;20579;-87
2021/01/03 03:09:33;;;;;;;0.50;0.50;;;1.70;99.90;;;;;;5011699;28;20214;-87
2021/01/03 03:11:59;;;;;;;0.50;0.50;;;1.80;99.90;;;;;;5012004;28;20214;-87
2021/01/03 03:14:26;;;;;;;0.50;0.50;;;1.80;99.90;;;;;;5011495;28;20637;-87
2021/01/03 03:16:55;;;;;;;0.50;0.50;;;3.60;99.90;;;;;;5011397;28;20216;-87
2021/01/03 03:19:21;;;;;;;0.50;0.50;;;1.70;99.90;;;;;;5011271;28;20229;-87
2021/01/03 03:21:49;;;;;;;0.40;0.40;;;1.70;99.90;;;;;;5011658;28;20213;-86
2021/01/03 03:24:16;;;;;;;0.50;0.50;;;1.70;99.90;;;;;;5011595;28;20692;-86
2021/01/03 03:26:42;;;;;;;0.50;0.50;;;1.70;99.90;;;;;;5010922;28;20732;-87
2021/01/03 03:29:08;;;;;;;0.40;0.40;;;1.70;99.90;;;;;;5010926;28;20850;-87
2021/01/03 03:31:35;;;;;;;0.50;0.50;;;1.50;99.90;;;;;;5011642;28;20210;-87
2021/01/03 03:34:01;;;;;;;0.45;0.45;;;1.70;99.90;;;;;;5011378;28;20224;-87
2021/01/03 03:36:27;;;;;;;0.50;0.50;;;1.70;99.90;;;;;;5010913;28;20201;-87
2021/01/03 03:38:54;;;;;;;0.50;0.50;;;1.60;99.90;;;;;;5011105;28;20205;-87
2021/01/03 03:41:21;;;;;;;0.40;0.40;;;1.70;99.90;;;;;;5011179;28;20748;-87
2021/01/03 03:43:47;;;;;;;0.47;0.47;;;1.60;99.90;;;;;;5010946;28;20229;-88
2021/01/03 03:46:14;;;;;;;0.50;0.50;;;1.70;99.90;;;;;;5010783;28;20224;-87
2021/01/03 03:48:41;;;;;;;0.50;0.50;;;1.70;99.90;;;;;;5010796;28;20210;-87
2021/01/03 03:51:07;;;;;;;0.40;0.40;;;1.70;99.90;;;;;;5011382;28;20212;-88
2021/01/03 03:53:34;;;;;;;0.50;0.50;;;1.70;99.90;;;;;;5010455;28;20279;-88
2021/01/03 03:56:00;;;;;;;0.50;0.50;;;2.80;99.90;;;;;;5010762;28;20807;-88
2021/01/03 03:58:26;;;;;;;0.50;0.50;;;1.60;99.90;;;;;;5011220;28;20209;-87
2021/01/03 04:00:53;;;;;;;0.50;0.50;;;1.80;99.90;;;;;;5011203;28;20205;-88
2021/01/03 04:03:20;;;;;;;0.50;0.50;;;1.80;99.90;;;;;;5010490;28;20590;-87
2021/01/03 04:05:48;;;;;;;0.50;0.50;;;1.50;99.90;;;;;;5010785;28;20202;-87
2021/01/03 04:08:15;;;;;;;0.50;0.50;;;1.80;99.90;;;;;;5011068;28;20210;-87
2021/01/03 04:10:41;;;;;;;0.50;0.50;;;1.90;99.90;;;;;;5010394;28;20210;-87
2021/01/03 04:13:08;;;;;;;0.50;0.50;;;1.90;99.90;;;;;;5010260;28;20198;-88
2021/01/03 04:15:34;;;;;;;0.50;0.50;;;1.50;99.90;;;;;;5010170;28;20213;-87
2021/01/03 04:18:01;;;;;;;0.50;0.50;;;1.90;99.90;;;;;;5010590;28;20267;-87
2021/01/03 04:20:27;;;;;;;0.50;0.50;;;1.90;99.90;;;;;;5010596;28;20206;-87
2021/01/03 04:22:54;;;;;;;0.50;0.50;;;1.70;99.90;;;;;;5010197;28;20210;-87
2021/01/03 04:25:21;;;;;;;0.50;0.50;;;1.20;99.90;;;;;;5009970;28;20225;-87
2021/01/03 04:27:53;;;;;;;0.50;0.50;;;1.80;99.90;;;;;;5010588;28;20245;-87
2021/01/03 04:30:24;;;;;;;0.50;0.50;;;2.10;99.90;;;;;;5010591;28;20211;-87
2021/01/03 04:32:50;;;;;;;0.50;0.50;;;2.30;99.90;;;;;;5010266;28;20202;-87
2021/01/03 04:35:18;;;;;;;0.50;0.50;;;2.20;99.90;;;;;;5010731;28;20210;-88
2021/01/03 04:37:47;;;;;;;0.50;0.50;;;1.60;99.90;;;;;;5010212;28;20280;-88
2021/01/03 04:40:19;;;;;;;0.50;0.50;;;2.00;99.90;;;;;;5009919;28;20210;-87
2021/01/03 04:42:51;;;;;;;0.50;0.50;;;2.20;99.90;;;;;;5009765;28;20209;-88
2021/01/03 04:45:22;;;;;;;0.50;0.50;;;2.30;99.90;;;;;;5010475;28;20201;-87
2021/01/03 04:47:56;;;;;;;0.50;0.50;;;2.30;99.90;;;;;;5010307;28;20214;-87
2021/01/03 04:50:42;;;;;;;0.50;0.50;;;2.20;99.90;;;;;;5010048;28;20205;-87
2021/01/03 04:53:27;;;;;;;0.50;0.50;;;2.30;99.90;;;;;;5010141;28;20676;-87
2021/01/03 04:56:00;;;;;;;0.50;0.50;;;2.30;99.90;;;;;;5010074;28;20208;-88
2021/01/03 04:58:35;;;;;;;0.50;0.50;;;2.40;99.90;;;;;;5009957;28;20205;-88
2021/01/03 05:01:40;;;;;;;0.50;0.50;;;2.10;99.90;;;;;;5009660;28;20209;-87
2021/01/03 05:04:47;;;;;;;0.50;0.50;;;2.20;99.90;;;;;;5009542;28;20599;-88
2021/01/03 05:07:17;;;;;;;0.50;0.50;;;2.30;99.90;;;;;;4987075;28;20720;-87
2021/01/03 05:09:44;;;;;;;0.50;0.50;;;2.30;99.90;;;;;;5009626;28;20561;-88
2021/01/03 05:12:23;;;;;;;0.50;0.50;;;2.40;99.90;;;;;;5009965;28;20206;-88
2021/01/03 05:14:54;;;;;;;0.40;0.40;;;2.30;99.90;;;;;;5009442;28;20205;-87
2021/01/03 05:17:21;;;;;;;0.50;0.50;;;2.30;99.90;;;;;;5009197;28;20202;-88
2021/01/03 05:19:47;;;;;;;0.50;0.50;;;2.30;99.90;;;;;;5009253;28;20237;-87
2021/01/03 05:22:44;;;;;;;0.50;0.50;;;2.30;99.90;;;;;;5010083;28;20209;-87
2021/01/03 05:25:22;;;;;;;0.40;0.40;;;2.30;99.90;;;;;;5013409;28;20695;-89
2021/01/03 05:28:13;;;;;;;0.50;0.50;;;2.30;99.90;;;;;;5013186;28;20699;-89
2021/01/03 05:34:14;;;;;;;0.50;0.50;;;2.30;99.90;;;;;;5010883;28;20248;-89
2021/01/03 05:37:11;;;;;;;0.50;0.50;;;1.90;99.90;;;;;;5012736;28;20219;-90
2021/01/03 05:40:08;;;;;;;0.50;0.50;;;2.60;99.90;;;;;;5003770;28;20209;-89
2021/01/03 05:42:42;;;;;;;0.50;0.50;;;2.40;99.90;;;;;;4946407;28;20672;-89
2021/01/03 05:45:12;;;;;;;0.40;0.40;;;2.20;99.90;;;;;;5012655;28;20239;-89
2021/01/03 05:47:55;;;;;;;0.40;0.40;;;3.00;99.90;;;;;;5012999;28;20229;-88
2021/01/03 05:50:36;;;;;;;0.50;0.50;;;4.00;99.90;;;;;;5013045;28;20292;-88
2021/01/03 05:53:14;;;;;;;0.50;0.50;;;4.10;99.90;;;;;;5013418;28;20583;-89
2021/01/03 05:55:59;;;;;;;0.40;0.40;;;2.50;99.90;;;;;;5012854;28;20308;-88
2021/01/03 05:58:36;;;;;;;0.50;0.50;;;2.20;99.90;;;;;;5012559;28;20213;-88
2021/01/03 06:01:25;;;;;;;0.50;0.50;;;2.10;99.90;;;;;;5012736;28;20669;-88
2021/01/03 06:04:07;;;;;;;0.45;0.45;;;2.50;99.90;;;;;;5002977;28;20222;-88
2021/01/03 06:06:48;;;;;;;0.50;0.50;;;2.50;99.90;;;;;;5012452;28;20265;-88
2021/01/03 06:13:05;;;;;;;0.50;0.50;;;2.60;99.90;;;;;;4978644;28;20577;-88
2021/01/03 06:15:47;;;;;;;0.50;0.50;;;2.50;99.90;;;;;;5011977;28;20212;-89
2021/01/03 06:18:24;;;;;;;0.50;0.50;;;3.50;99.90;;;;;;5012383;28;20206;-88
2021/01/03 06:20:53;;;;;;;0.50;0.50;;;2.40;99.90;;;;;;5013456;28;20701;-89
2021/01/03 06:23:33;;;;;;;0.50;0.50;;;2.20;99.90;;;;;;5012421;28;20549;-89
2021/01/03 06:26:07;;;;;;;0.50;0.50;;;2.30;99.90;;;;;;5012672;28;20611;-88
2021/01/03 06:28:51;;;;;;;0.50;0.50;;;2.60;99.90;;;;;;5012423;28;20477;-89
2021/01/03 06:31:56;;;;;;;0.50;0.50;;;2.60;99.90;;;;;;5012872;28;20206;-88
2021/01/03 06:34:40;;;;;;;0.50;0.50;;;2.60;99.90;;;;;;5011519;28;20209;-89
2021/01/03 06:37:50;;;;;;;;;;;;;;;;;;;;;
2021/01/03 06:40:36;;;;;;;0.50;0.50;;;2.50;99.90;;;;;;5011729;28;20228;-89
2021/01/03 06:47:32;;;;;;;0.50;0.50;;;2.20;99.90;;;;;;5010511;28;20297;-89
2021/01/03 06:54:23;;;;;;;0.50;0.50;;;2.50;99.90;;;;;;4996447;28;20628;-89
2021/01/03 06:57:14;;;;;;;0.50;0.50;;;2.50;99.90;;;;;;5011471;28;20494;-88
2021/01/03 07:00:04;;;;;;;0.50;0.50;;;2.60;99.90;;;;;;5011274;28;20205;-88
2021/01/03 07:02:45;;;;;;;0.50;0.50;;;2.40;99.90;;;;;;5011927;28;20209;-89
2021/01/03 07:06:11;;;;;;;0.50;0.50;;;2.70;99.90;;;;;;5011222;28;20232;-90
2021/01/03 07:47:54;;;;;;;0.50;0.50;;;2.30;99.90;;;;;;4882344;29;20247;-89
2021/01/03 07:50:35;;;;;;;0.50;0.50;;;4.00;99.90;;;;;;4911527;29;20213;-89
2021/01/03 07:53:29;;;;;;;0.50;0.50;;;2.30;99.90;;;;;;4915317;29;20204;-89
2021/01/03 07:59:36;;;;;;;0.50;0.50;;;2.30;99.90;;;;;;4971397;28;20212;-89
2021/01/03 08:02:04;;;;;;;0.50;0.50;;;2.10;99.90;;;;;;4990940;28;20203;-89
2021/01/03 08:04:32;;;;;;;0.50;0.50;;;2.30;99.90;;;;;;4990862;28;20574;-88
2021/01/03 08:07:10;;;;;;;0.50;0.50;;;2.20;99.90;;;;;;4991142;28;20214;-88
2021/01/03 08:09:36;;;;;;;0.50;0.50;;;2.00;99.90;;;;;;4990897;28;20245;-89
2021/01/03 08:12:20;;;;;;;0.50;0.50;;;3.40;99.90;;;;;;4991212;28;20209;-89
2021/01/03 08:14:48;;;;;;;0.50;0.50;;;2.50;99.90;;;;;;4991860;28;20216;-87
2021/01/03 08:17:21;;;;;;;0.50;0.50;;;1.80;99.90;;;;;;4990798;28;20210;-88
2021/01/03 08:19:50;;;;;;;0.50;0.50;;;1.90;99.90;;;;;;4991048;28;20210;-89
2021/01/03 08:22:26;;;;;;;0.50;0.50;;;2.20;99.90;;;;;;4991109;28;20245;-89
2021/01/03 08:24:57;;;;;;;0.50;0.50;;;2.30;99.90;;;;;;4990639;28;20276;-88
2021/01/03 08:27:33;;;;;;;0.50;0.50;;;2.30;99.90;;;;;;4991002;28;20210;-87
2021/01/03 08:30:20;;;;;;;0.50;0.50;;;2.50;99.90;;;;;;4990343;28;20528;-88
2021/01/03 08:32:53;;;;;;;0.50;0.50;;;2.40;99.90;;;;;;4990476;28;20208;-89
2021/01/03 08:35:31;;;;;;;0.50;0.50;;;2.30;99.90;;;;;;4989849;28;20226;-89
2021/01/03 08:38:39;;;;;;;0.50;0.50;;;2.30;99.90;;;;;;4990742;28;20221;-89
2021/01/03 08:41:23;;;;;;;0.50;0.50;;;3.30;99.90;;;;;;4985166;28;20216;-89
2021/01/03 08:43:59;;;;;;;0.50;0.50;;;2.40;99.90;;;;;;4977642;28;20246;-89
2021/01/03 08:46:33;;;;;;;0.50;0.50;;;2.40;99.90;;;;;;4976533;28;20759;-88
2021/01/03 08:50:02;;;;;;;0.50;0.50;;;2.30;99.90;;;;;;4977684;28;20294;-89
2021/01/03 09:07:07;;;;;;;;;;;;;;;;;;;;;
2021/01/03 09:13:22;;;;;;;0.50;0.50;;;2.20;99.90;;;;;;4869237;29;20207;-89
2021/01/03 09:16:28;;;;;;;0.50;0.50;;;2.70;99.90;;;;;;4888409;29;20209;-89
2021/01/03 09:25:49;;;;;;;0.50;0.50;;;2.50;99.90;;;;;;4801720;29;20615;-88
2021/01/03 09:35:27;;;;;;;0.50;0.50;;;1.90;99.90;;;;;;4822420;29;20393;-89
2021/01/03 09:41:52;;;;;;;0.50;0.50;;;2.40;99.90;;;;;;4874479;29;20226;-89
2021/01/03 09:45:18;;;;;;;;;;;;;;;;;;;;;
2021/01/03 09:48:16;;;;;;;0.50;0.50;;;1.60;99.90;;;;;;4927559;29;20227;-90
2021/01/03 09:51:25;;;;;;;0.50;0.50;;;2.20;99.90;;;;;;4914823;28;20342;-89
2021/01/03 09:54:44;;;;;;;0.50;0.50;;;1.80;99.90;;;;;;4925088;28;20235;-89
2021/01/03 10:01:15;;;;;;;0.50;0.50;;;2.90;99.90;;;;;;4926994;29;20212;-88
2021/01/03 10:07:56;;;;;;;0.50;0.50;;;2.00;99.90;;;;;;4927989;29;20247;-88
2021/01/03 10:11:38;;;;;;;;;;;;;;;;;;;;;
2021/01/03 10:14:52;;;;;;;0.50;0.50;;;3.30;99.90;;;;;;4934710;29;20212;-87
2021/01/03 10:17:23;;;;;;;0.50;0.50;;;3.00;99.90;;;;;;4931696;29;20304;-87
2021/01/03 10:30:08;;;;;;;0.50;0.50;;;2.50;99.90;;;;;;4789498;29;20258;-88
2021/01/03 10:32:47;;;;;;;0.50;0.50;;;2.50;99.90;;;;;;4834178;29;20260;-88
2021/01/03 10:35:49;;;;;;;0.50;0.50;;;2.60;99.90;;;;;;4926127;29;20218;-88
2021/01/03 10:38:17;;;;;;;0.50;0.50;;;2.60;99.90;;;;;;4953789;28;20203;-88
2021/01/03 10:40:53;;;;;;;0.50;0.50;;;3.10;99.90;;;;;;4960786;28;20226;-88
2021/01/03 10:43:46;;;;;;;0.50;0.50;;;2.00;99.90;;;;;;4954081;28;20211;-89
2021/01/03 10:49:10;;;;;;;0.60;0.60;;;3.10;99.90;;;;;;4958204;28;20217;-88
2021/01/03 10:51:59;;;;;;;0.50;0.50;;;2.90;99.90;;;;;;4962871;28;20717;-88
2021/01/03 11:03:46;;;;;;;0.55;0.55;;;2.80;99.90;;;;;;4899229;29;20213;-88
2021/01/03 11:06:14;;;;;;;0.50;0.50;;;2.20;99.90;;;;;;4912371;29;20201;-88
2021/01/03 11:08:41;;;;;;;0.50;0.50;;;2.30;99.90;;;;;;4968339;28;20234;-87
2021/01/03 11:11:08;;;;;;;0.50;0.50;;;2.70;99.90;;;;;;4983809;28;20207;-87
2021/01/03 11:13:35;;;;;;;0.50;0.50;;;2.70;99.90;;;;;;4979436;28;20558;-87
2021/01/03 11:36:47;;;;;;;0.50;0.50;;;2.90;99.90;;;;;;4770493;30;20216;-89
2021/01/03 11:39:28;;;;;;;0.50;0.50;;;4.30;99.90;;;;;;4781716;29;20941;-89
2021/01/03 11:42:10;;;;;;;0.50;0.50;;;3.60;99.90;;;;;;4824764;29;20631;-88
2021/01/03 11:44:53;;;;;;;0.60;0.60;;;2.90;99.90;;;;;;4893897;29;20282;-88
2021/01/03 11:51:22;;;;;;;0.60;0.60;;;2.90;99.90;;;;;;4913571;28;20209;-90
2021/01/03 11:54:05;;;;;;;0.50;0.50;;;2.90;99.90;;;;;;4956561;28;20217;-88
2021/01/03 11:56:40;;;;;;;0.50;0.50;;;2.90;99.90;;;;;;4963886;28;20206;-88
2021/01/03 11:59:19;;;;;;;0.60;0.60;;;2.10;99.90;;;;;;4963355;28;20262;-88
2021/01/03 12:02:16;;;;;;;0.50;0.50;;;4.80;99.90;;;;;;4962530;28;20207;-89
2021/01/03 12:05:11;;;;;;;0.57;0.57;;;2.80;99.90;;;;;;4996169;23;20253;-89
2021/01/03 12:07:39;;;;;;;0.50;0.50;;;2.70;99.90;;;;;;4984392;28;20203;-88
2021/01/03 12:10:14;;;;;;;0.60;0.60;;;3.10;99.90;;;;;;5016456;28;20208;-88
2021/01/03 12:13:18;;;;;;;0.60;0.60;;;3.00;99.90;;;;;;5018249;28;20197;-89
2021/01/03 12:15:46;;;;;;;0.57;0.57;;;3.00;99.90;;;;;;5028192;28;20235;-88
2021/01/03 12:18:32;;;;;;;0.55;0.55;;;4.90;99.90;;;;;;5015687;28;20292;-88
2021/01/03 12:22:04;;;;;;;0.50;0.50;;;4.00;99.90;;;;;;5126909;27;20677;-87
2021/01/03 12:24:31;;;;;;;0.60;0.60;;;3.60;99.90;;;;;;5128554;27;20531;-87
2021/01/03 12:26:58;;;;;;;0.50;0.50;;;3.00;99.90;;;;;;5130255;28;20202;-87
2021/01/03 12:29:28;;;;;;;0.50;0.50;;;3.00;99.90;;;;;;5130599;28;20679;-87
2021/01/03 12:32:08;;;;;;;0.50;0.50;;;3.10;99.90;;;;;;5130186;28;20247;-89
2021/01/03 12:34:50;;;;;;;0.60;0.60;;;2.70;99.90;;;;;;5130284;27;20568;-88
2021/01/03 12:37:22;;;;;;;0.50;0.50;;;2.50;99.90;;;;;;5129256;28;20255;-87
2021/01/03 12:39:56;;;;;;;0.50;0.50;;;2.80;99.90;;;;;;5128996;27;20272;-87
2021/01/03 12:42:23;;;;;;;0.60;0.60;;;3.10;99.90;;;;;;5129711;28;20620;-85
2021/01/03 12:44:53;;;;;;;0.50;0.50;;;3.00;99.90;;;;;;5130267;28;20671;-87
2021/01/03 12:47:20;;;;;;;0.60;0.60;;;3.10;99.90;;;;;;5130789;27;20190;-86
2021/01/03 12:49:47;;;;;;;0.50;0.50;;;3.10;99.90;;;;;;5130047;28;20201;-87
2021/01/03 12:52:13;;;;;;;0.57;0.57;;;3.10;99.90;;;;;;5129897;27;20218;-87
2021/01/03 12:54:40;;;;;;;0.60;0.60;;;3.40;99.90;;;;;;5129451;27;20653;-87
2021/01/03 12:57:07;;;;;;;0.50;0.50;;;3.20;99.90;;;;;;5129229;28;20197;-88
2021/01/03 12:59:33;;;;;;;0.50;0.50;;;2.90;99.90;;;;;;5128275;27;20222;-89
2021/01/03 13:02:00;;;;;;;0.50;0.50;;;3.20;99.90;;;;;;5128997;27;20285;-88
2021/01/03 13:04:26;;;;;;;0.50;0.50;;;3.20;99.90;;;;;;5129856;28;20201;-87
2021/01/03 13:07:00;;;;;;;0.50;0.50;;;3.10;99.90;;;;;;5129592;27;20263;-89
2021/01/03 13:09:29;;;;;;;0.52;0.52;;;3.10;99.90;;;;;;5128854;28;20197;-88
2021/01/03 13:11:57;;;;;;;0.60;0.60;;;4.30;99.90;;;;;;5127639;27;20210;-88
2021/01/03 13:14:26;;;;;;;0.50;0.50;;;2.50;99.90;;;;;;5128117;28;20206;-88
2021/01/03 13:17:28;;;;;;;0.50;0.50;;;4.10;99.90;;;;;;5127366;27;20202;-90
2021/01/03 13:19:54;;;;;;;0.50;0.50;;;3.10;99.90;;;;;;5085031;27;20232;-87
2021/01/03 13:22:35;;;;;;;0.57;0.57;;;3.10;99.90;;;;;;5116144;27;20206;-88
2021/01/03 13:25:03;;;;;;;0.50;0.50;;;3.80;99.90;;;;;;5120764;27;20296;-87
2021/01/03 13:27:30;;;;;;;0.50;0.50;;;3.00;99.90;;;;;;5126131;28;20225;-87
2021/01/03 13:30:07;;;;;;;0.52;0.52;;;2.40;99.90;;;;;;5127082;27;20585;-88
2021/01/03 13:32:34;;;;;;;0.50;0.50;;;3.00;99.90;;;;;;5113981;27;20194;-87
2021/01/03 13:35:15;;;;;;;0.50;0.50;;;2.40;99.90;;;;;;5113031;28;20202;-88
2021/01/03 13:37:43;;;;;;;0.50;0.50;;;2.90;99.90;;;;;;5113296;28;20207;-86
2021/01/03 13:40:12;;;;;;;0.50;0.50;;;2.90;99.90;;;;;;5107548;28;20238;-87
2021/01/03 13:42:39;;;;;;;0.50;0.50;;;2.90;99.90;;;;;;5104512;27;20206;-87
2021/01/03 13:45:07;;;;;;;0.50;0.50;;;3.00;99.90;;;;;;5113187;27;20206;-87
2021/01/03 13:47:33;;;;;;;0.60;0.60;;;2.90;99.90;;;;;;5114277;28;20220;-87
2021/01/03 13:50:00;;;;;;;0.50;0.50;;;2.90;99.90;;;;;;5114452;28;20202;-88
2021/01/03 13:52:29;;;;;;;0.60;0.60;;;2.80;99.90;;;;;;5114412;28;20213;-87
2021/01/03 13:54:55;;;;;;;0.50;0.50;;;3.50;99.90;;;;;;5114316;28;20247;-87
2021/01/03 13:57:24;;;;;;;0.60;0.60;;;2.80;99.90;;;;;;5114514;28;20271;-88
2021/01/03 13:59:52;;;;;;;0.50;0.50;;;2.80;99.90;;;;;;5097605;28;20218;-86
2021/01/03 14:02:23;;;;;;;0.50;0.50;;;3.70;99.90;;;;;;5101557;28;20282;-89
2021/01/03 14:04:51;;;;;;;0.57;0.57;;;2.50;99.90;;;;;;5114130;28;20206;-87
2021/01/03 14:07:26;;;;;;;0.60;0.60;;;2.90;99.90;;;;;;5113204;28;20207;-89
2021/01/03 14:09:52;;;;;;;0.50;0.50;;;2.40;99.90;;;;;;5097756;28;20190;-87
2021/01/03 14:12:19;;;;;;;0.50;0.50;;;2.50;99.90;;;;;;5113831;28;20278;-87
2021/01/03 14:14:50;;;;;;;0.50;0.50;;;2.70;99.90;;;;;;5111776;28;20298;-89
2021/01/03 14:17:21;;;;;;;0.60;0.60;;;3.20;99.90;;;;;;5113059;28;20238;-88
2021/01/03 14:19:47;;;;;;;0.50;0.50;;;2.70;99.90;;;;;;5110110;27;21167;-87
2021/01/03 14:22:14;;;;;;;0.50;0.50;;;4.10;99.90;;;;;;5112690;28;20214;-88
2021/01/03 14:24:40;;;;;;;0.50;0.50;;;3.60;99.90;;;;;;5113784;28;20290;-88
2021/01/03 14:27:10;;;;;;;0.60;0.60;;;2.30;99.90;;;;;;5112480;28;20209;-87
2021/01/03 14:29:36;;;;;;;0.50;0.50;;;2.10;99.90;;;;;;5113207;28;20198;-86
2021/01/03 14:32:05;;;;;;;0.50;0.50;;;2.50;99.90;;;;;;5111908;28;20271;-87
2021/01/03 14:34:36;;;;;;;0.55;0.55;;;2.60;99.90;;;;;;5113153;28;20297;-87
2021/01/03 14:37:18;;;;;;;0.50;0.50;;;2.60;99.90;;;;;;5113352;28;20210;-87
2021/01/03 14:39:47;;;;;;;0.50;0.50;;;4.70;99.90;;;;;;5113325;28;20218;-87
2021/01/03 14:42:19;;;;;;;0.50;0.50;;;2.60;99.90;;;;;;5111357;28;20206;-88
2021/01/03 14:44:54;;;;;;;0.50;0.50;;;2.60;99.90;;;;;;5110646;27;20202;-88
2021/01/03 14:55:39;;;;;;;;;;;;;;;;;;;;;
2021/01/03 14:58:16;;;;;;;0.50;0.50;;;3.60;99.90;;;;;;4918022;29;20212;-89
2021/01/03 15:00:52;;;;;;;0.50;0.50;;;2.10;99.90;;;;;;4931217;29;20365;-90
2021/01/03 15:03:58;;;;;;;0.50;0.50;;;2.20;99.90;;;;;;4932163;28;20288;-88
2021/01/03 15:06:49;;;;;;;0.50;0.50;;;2.20;99.90;;;;;;5033915;28;20241;-88
2021/01/03 15:09:18;;;;;;;0.60;0.60;;;2.20;99.90;;;;;;5089471;28;20226;-88
2021/01/03 15:12:12;;;;;;;0.50;0.50;;;2.20;99.90;;;;;;5089404;28;20203;-88
2021/01/03 15:14:50;;;;;;;0.50;0.50;;;2.10;99.90;;;;;;5081290;28;20209;-88
2021/01/03 15:17:52;;;;;;;0.50;0.50;;;2.30;99.90;;;;;;5108371;28;20293;-87
2021/01/03 15:57:46;;;;;;;0.50;0.50;;;2.20;99.90;;;;;;3955494;26;20229;-95
2021/01/03 16:00:21;;;;;;;0.50;0.50;;;2.20;99.90;;;;;;4934411;29;20224;-95
2021/01/03 16:02:47;;;;;;;0.50;0.50;;;2.20;99.90;;;;;;4925401;29;20203;-94
2021/01/03 16:05:15;;;;;;;0.50;0.50;;;2.20;99.90;;;;;;4929639;29;20204;-94
2021/01/03 16:07:42;;;;;;;0.50;0.50;;;2.20;99.90;;;;;;4927022;29;20208;-90
2021/01/03 16:10:10;;;;;;;0.50;0.50;;;2.20;99.90;;;;;;4924883;29;20208;-93
2021/01/03 16:12:36;;;;;;;0.50;0.50;;;2.20;99.90;;;;;;4925533;29;20212;-95
2021/01/03 16:15:04;;;;;;;0.50;0.50;;;2.20;99.90;;;;;;4928377;29;20196;-94
2021/01/03 16:17:30;;;;;;;0.50;0.50;;;2.20;99.90;;;;;;4930289;29;20208;-95
2021/01/03 16:19:57;;;;;;;0.50;0.50;;;2.20;99.90;;;;;;4943483;29;20228;-95
2021/01/03 16:27:35;;;;;;;0.50;0.50;;;2.20;99.90;;;;;;5641188;23;20266;-88
2021/01/03 16:51:04;;;;;;;0.40;0.40;;;2.10;99.90;;;;;;4790357;29;20197;-87
2021/01/03 17:48:45;;;;;;;;;;;;;;;;;;;;;
2021/01/03 17:51:12;;;;;;;0.50;0.50;;;2.30;99.90;;;;;;4825555;29;20213;-90
2021/01/03 17:53:51;;;;;;;0.50;0.50;;;2.40;99.90;;;;;;4915155;29;20204;-91
2021/01/03 18:03:07;;;;;;;0.43;0.43;;;2.50;99.90;;;;;;4735315;29;20860;-86
2021/01/03 18:05:34;;;;;;;0.50;0.50;;;2.30;99.90;;;;;;4902228;29;20276;-84
2021/01/03 18:08:01;;;;;;;0.40;0.40;;;2.50;99.90;;;;;;4904742;29;20214;-83
2021/01/03 18:10:27;;;;;;;0.50;0.50;;;2.50;99.90;;;;;;4901906;29;20201;-83
2021/01/03 18:12:54;;;;;;;0.50;0.50;;;2.50;99.90;;;;;;4903100;29;20213;-83
2021/01/03 18:15:21;;;;;;;0.45;0.45;;;2.50;99.90;;;;;;4902101;29;20257;-83
2021/01/03 18:17:48;;;;;;;0.50;0.50;;;2.50;99.90;;;;;;4903032;29;20229;-83
2021/01/03 18:20:15;;;;;;;0.50;0.50;;;2.50;99.90;;;;;;4902092;29;20222;-83
2021/01/03 18:22:42;;;;;;;0.50;0.50;;;2.50;99.90;;;;;;4897068;29;20300;-82